createdAt,value
2023-03-31T00:01:41.196Z,2.22
2023-03-31T00:04:09.049Z,1.50
2023-03-31T00:06:41.156Z,1.40
2023-03-31T00:09:18.244Z,1.52
2023-03-31T00:11:44.996Z,1.70
2023-03-31T00:14:11.387Z,1.52
2023-03-31T00:16:38.415Z,1.25
2023-03-31T00:19:05.554Z,1.50
2023-03-31T00:21:36.097Z,1.50
2023-03-31T00:24:05.031Z,2.03
2023-03-31T00:26:32.097Z,1.20
2023-03-31T00:28:58.850Z,1.80
2023-03-31T00:31:26.773Z,1.85
2023-03-31T00:33:53.012Z,1.65
2023-03-31T00:36:26.540Z,1.85
2023-03-31T00:38:53.916Z,2.13
2023-03-31T00:41:19.970Z,2.10
2023-03-31T00:44:01.265Z,1.48
2023-03-31T00:46:33.288Z,1.60
2023-03-31T00:48:59.136Z,1.45
2023-03-31T00:51:33.616Z,1.30
2023-03-31T00:54:04.744Z,2.35
2023-03-31T00:56:36.906Z,1.38
2023-03-31T00:59:07.265Z,1.60
2023-03-31T01:01:35.126Z,1.55
2023-03-31T01:04:03.224Z,1.40
2023-03-31T01:06:32.116Z,1.52
2023-03-31T01:08:58.422Z,2.30
2023-03-31T01:11:27.464Z,2.38
2023-03-31T01:13:55.418Z,1.63
2023-03-31T01:16:21.821Z,1.50
2023-03-31T01:18:48.962Z,1.67
2023-03-31T01:21:29.945Z,1.60
2023-03-31T01:24:23.408Z,2.00
2023-03-31T01:27:14.818Z,1.60
2023-03-31T01:30:02.919Z,1.60
2023-03-31T01:32:40.820Z,1.55
2023-03-31T01:35:52.908Z,2.03
2023-03-31T01:38:49.323Z,1.80
2023-03-31T01:44:07.613Z,2.30
2023-03-31T01:47:02.435Z,2.10
2023-03-31T01:49:34.595Z,2.28
2023-03-31T01:52:00.983Z,2.05
2023-03-31T01:54:39.608Z,2.13
2023-03-31T01:57:16.054Z,2.72
2023-03-31T01:59:56.062Z,3.05
2023-03-31T02:02:27.990Z,2.65
2023-03-31T02:05:00.275Z,3.15
2023-03-31T02:07:35.828Z,3.05
2023-03-31T02:12:32.252Z,3.47
2023-03-31T02:15:01.718Z,3.35
2023-03-31T02:17:32.010Z,2.85
2023-03-31T02:20:05.013Z,2.90
2023-03-31T02:22:35.472Z,3.53
2023-03-31T02:25:05.620Z,3.47
2023-03-31T02:27:35.739Z,2.65
2023-03-31T02:30:03.339Z,3.47
2023-03-31T02:32:38.105Z,3.20
2023-03-31T02:35:06.314Z,3.05
2023-03-31T02:37:32.607Z,3.22
2023-03-31T02:40:02.186Z,2.78
2023-03-31T02:42:28.385Z,2.75
2023-03-31T02:44:54.171Z,3.08
2023-03-31T02:47:21.457Z,2.55
2023-03-31T02:49:54.977Z,2.30
2023-03-31T02:52:49.290Z,2.53
2023-03-31T02:55:32.297Z,2.38
2023-03-31T02:58:35.171Z,2.10
2023-03-31T03:01:31.327Z,1.98
2023-03-31T03:04:18.428Z,2.70
2023-03-31T03:06:53.044Z,1.80
2023-03-31T03:09:35.396Z,2.83
2023-03-31T03:12:17.350Z,1.90
2023-03-31T03:15:12.355Z,2.30
2023-03-31T03:17:44.755Z,1.55
2023-03-31T03:20:13.142Z,1.63
2023-03-31T03:22:40.114Z,2.15
2023-03-31T03:25:10.843Z,2.17
2023-03-31T03:27:37.281Z,2.78
2023-03-31T03:30:04.908Z,2.95
2023-03-31T03:32:33.094Z,2.20
2023-03-31T03:35:00.184Z,1.98
2023-03-31T03:37:27.039Z,2.45
2023-03-31T03:39:52.903Z,2.60
2023-03-31T03:42:18.752Z,2.75
2023-03-31T03:44:44.630Z,2.40
2023-03-31T03:47:10.437Z,1.88
2023-03-31T03:49:36.349Z,2.58
2023-03-31T03:52:02.468Z,2.33
2023-03-31T03:54:28.267Z,2.30
2023-03-31T03:56:54.128Z,2.08
2023-03-31T03:59:19.965Z,2.33
2023-03-31T04:01:45.855Z,2.72
2023-03-31T04:04:11.724Z,3.13
2023-03-31T04:06:37.588Z,3.53
2023-03-31T04:09:03.780Z,4.35
2023-03-31T04:11:29.974Z,3.55
2023-03-31T04:13:55.733Z,2.83
2023-03-31T04:16:22.503Z,3.17
2023-03-31T04:18:48.339Z,3.20
2023-03-31T04:21:22.010Z,2.80
2023-03-31T04:23:57.966Z,2.90
2023-03-31T04:26:30.183Z,3.15
2023-03-31T04:29:01.990Z,2.85
2023-03-31T04:31:29.924Z,3.42
2023-03-31T04:34:00.388Z,3.30
2023-03-31T04:36:27.253Z,2.95
2023-03-31T04:38:54.016Z,2.60
2023-03-31T04:41:21.332Z,2.65
2023-03-31T04:43:47.086Z,3.42
2023-03-31T04:46:12.967Z,3.03
2023-03-31T04:48:39.031Z,3.83
2023-03-31T04:51:04.989Z,3.30
2023-03-31T04:53:30.934Z,4.15
2023-03-31T04:55:56.697Z,3.70
2023-03-31T04:58:22.873Z,3.85
2023-03-31T05:00:48.749Z,3.10
2023-03-31T05:03:15.015Z,2.60
2023-03-31T05:05:40.901Z,2.60
2023-03-31T05:08:06.857Z,2.35
2023-03-31T05:10:32.765Z,2.22
2023-03-31T05:12:58.534Z,2.65
2023-03-31T05:15:24.361Z,2.38
2023-03-31T05:17:51.726Z,2.00
2023-03-31T05:20:18.893Z,2.80
2023-03-31T05:22:45.407Z,1.98
2023-03-31T05:25:17.944Z,1.75
2023-03-31T05:27:47.847Z,1.73
2023-03-31T05:30:14.663Z,2.20
2023-03-31T05:32:41.027Z,2.47
2023-03-31T05:35:07.490Z,1.83
2023-03-31T05:37:37.158Z,1.83
2023-03-31T05:40:07.434Z,1.95
2023-03-31T05:42:33.256Z,1.98
2023-03-31T05:44:59.076Z,2.42
2023-03-31T05:47:25.209Z,1.90
2023-03-31T05:49:51.283Z,2.00
2023-03-31T05:52:17.122Z,2.35
2023-03-31T05:54:43.633Z,3.13
2023-03-31T05:57:10.300Z,2.03
2023-03-31T05:59:36.234Z,2.22
2023-03-31T06:02:02.721Z,1.90
2023-03-31T06:04:28.804Z,1.95
2023-03-31T06:06:55.279Z,2.28
2023-03-31T06:09:21.466Z,2.10
2023-03-31T06:11:49.410Z,2.90
2023-03-31T06:14:16.285Z,1.73
2023-03-31T06:16:42.046Z,2.53
2023-03-31T06:19:07.968Z,2.13
2023-03-31T06:21:34.396Z,2.38
2023-03-31T06:24:00.454Z,1.80
2023-03-31T06:26:26.712Z,1.73
2023-03-31T06:28:53.161Z,2.63
2023-03-31T06:31:21.240Z,2.00
2023-03-31T06:33:47.598Z,1.63
2023-03-31T06:36:16.013Z,1.48
2023-03-31T06:38:42.108Z,1.75
2023-03-31T06:41:10.995Z,1.50
2023-03-31T06:43:36.873Z,1.88
2023-03-31T06:46:03.278Z,2.70
2023-03-31T06:48:29.154Z,1.63
2023-03-31T06:50:58.466Z,1.75
2023-03-31T06:53:24.423Z,2.17
2023-03-31T06:55:50.422Z,2.20
2023-03-31T06:58:16.173Z,2.22
2023-03-31T07:00:41.944Z,1.70
2023-03-31T07:03:10.632Z,1.42
2023-03-31T07:05:36.552Z,1.40
2023-03-31T07:08:02.826Z,1.10
2023-03-31T07:10:30.795Z,1.20
2023-03-31T07:12:56.792Z,1.75
2023-03-31T07:15:23.758Z,1.10
2023-03-31T07:17:53.199Z,1.10
2023-03-31T07:20:19.728Z,1.10
2023-03-31T07:22:47.723Z,1.73
2023-03-31T07:25:16.160Z,0.98
2023-03-31T07:27:43.093Z,2.03
2023-03-31T07:30:13.842Z,1.73
2023-03-31T07:32:40.546Z,1.50
2023-03-31T07:35:08.381Z,2.00
2023-03-31T07:37:43.086Z,2.38
2023-03-31T07:40:11.399Z,1.37
2023-03-31T07:42:37.379Z,1.50
2023-03-31T07:45:05.381Z,1.52
2023-03-31T07:47:32.172Z,1.70
2023-03-31T07:49:58.393Z,1.23
2023-03-31T07:52:24.303Z,1.55
2023-03-31T07:54:50.469Z,1.67
2023-03-31T07:57:18.980Z,1.20
2023-03-31T07:59:47.940Z,1.23
2023-03-31T08:02:16.276Z,1.20
2023-03-31T08:04:43.573Z,1.20
2023-03-31T08:07:12.424Z,1.30
2023-03-31T08:09:39.036Z,1.13
2023-03-31T08:12:05.667Z,1.33
2023-03-31T08:14:40.799Z,1.25
2023-03-31T08:17:08.516Z,1.40
2023-03-31T08:19:34.627Z,1.10
2023-03-31T08:22:00.414Z,1.70
2023-03-31T08:24:26.141Z,1.20
2023-03-31T08:26:52.200Z,1.50
2023-03-31T08:29:18.012Z,1.33
2023-03-31T08:31:43.864Z,1.20
2023-03-31T08:34:09.702Z,1.45
2023-03-31T08:36:35.635Z,1.38
2023-03-31T08:39:01.460Z,1.75
2023-03-31T08:41:52.984Z,2.08
2023-03-31T08:44:51.792Z,1.25
2023-03-31T08:47:22.127Z,1.15
2023-03-31T08:49:58.386Z,1.05
2023-03-31T08:52:30.154Z,1.13
2023-03-31T08:54:59.021Z,2.75
2023-03-31T08:57:30.898Z,1.58
2023-03-31T08:59:58.054Z,1.40
2023-03-31T09:02:29.943Z,1.40
2023-03-31T09:05:32.067Z,1.27
2023-03-31T09:08:30.810Z,1.48
2023-03-31T09:11:22.300Z,1.40
2023-03-31T09:14:03.329Z,1.27
2023-03-31T09:16:41.863Z,1.42
2023-03-31T09:19:17.718Z,1.88
2023-03-31T09:21:48.840Z,1.45
2023-03-31T09:24:14.810Z,1.50
2023-03-31T09:26:45.484Z,1.40
2023-03-31T09:29:34.491Z,2.03
2023-03-31T09:32:15.655Z,1.20
2023-03-31T09:34:42.416Z,1.60
2023-03-31T09:37:11.297Z,1.77
2023-03-31T09:39:38.246Z,1.85
2023-03-31T09:42:04.581Z,1.67
2023-03-31T09:44:37.005Z,2.75
2023-03-31T09:47:08.286Z,1.80
2023-03-31T09:49:37.167Z,1.60
2023-03-31T09:52:23.317Z,1.98
2023-03-31T09:54:52.359Z,2.72
2023-03-31T09:57:33.270Z,2.20
2023-03-31T10:00:15.671Z,1.73
2023-03-31T10:02:47.017Z,2.30
2023-03-31T10:05:32.736Z,1.55
2023-03-31T10:08:11.293Z,1.75
2023-03-31T10:10:37.966Z,1.70
2023-03-31T10:13:10.042Z,1.40
2023-03-31T10:15:42.224Z,1.63
2023-03-31T10:18:16.625Z,1.60
2023-03-31T10:20:48.315Z,1.48
2023-03-31T10:23:17.869Z,2.10
2023-03-31T10:25:46.453Z,1.92
2023-03-31T10:28:17.196Z,1.42
2023-03-31T10:30:55.063Z,2.00
2023-03-31T10:33:27.401Z,2.30
2023-03-31T10:35:58.826Z,2.72
2023-03-31T10:38:35.856Z,1.88
2023-03-31T10:41:02.316Z,2.42
2023-03-31T10:43:46.636Z,1.63
2023-03-31T10:46:12.456Z,1.35
2023-03-31T10:48:41.444Z,1.60
2023-03-31T10:51:18.847Z,1.75
2023-03-31T10:53:47.204Z,1.27
2023-03-31T10:56:35.061Z,2.50
2023-03-31T10:59:13.339Z,1.92
2023-03-31T11:02:00.637Z,2.03
2023-03-31T11:04:29.745Z,1.92
2023-03-31T11:07:02.180Z,2.47
2023-03-31T11:09:36.983Z,2.10
2023-03-31T11:12:20.144Z,2.53
2023-03-31T11:15:02.713Z,1.55
2023-03-31T11:17:40.708Z,1.88
2023-03-31T11:20:31.100Z,2.95
2023-03-31T11:23:36.114Z,2.40
2023-03-31T11:26:10.160Z,2.33
2023-03-31T11:28:48.530Z,2.22
2023-03-31T11:31:43.114Z,2.05
2023-03-31T11:34:32.493Z,2.58
2023-03-31T11:37:22.346Z,2.95
2023-03-31T11:40:19.055Z,2.28
2023-03-31T11:43:16.463Z,2.55
2023-03-31T11:45:45.640Z,2.40
2023-03-31T11:48:29.612Z,2.25
2023-03-31T11:50:59.131Z,2.40
2023-03-31T11:53:31.817Z,2.58
2023-03-31T11:56:01.535Z,2.63
2023-03-31T11:58:43.641Z,2.13
2023-03-31T12:01:22.651Z,2.15
2023-03-31T12:04:23.927Z,0.98
2023-03-31T12:06:53.789Z,1.02
2023-03-31T12:09:50.789Z,1.00
2023-03-31T12:12:23.733Z,0.90
2023-03-31T12:14:57.241Z,0.80
2023-03-31T12:17:27.053Z,0.80
2023-03-31T12:19:57.033Z,1.00
2023-03-31T12:22:38.216Z,0.70
2023-03-31T12:25:04.905Z,0.93
2023-03-31T12:27:39.708Z,0.73
2023-03-31T12:30:08.792Z,0.90
2023-03-31T12:32:43.692Z,1.10
2023-03-31T12:35:21.713Z,0.80
2023-03-31T12:38:32.074Z,1.13
2023-03-31T12:41:20.460Z,1.00
2023-03-31T12:44:04.991Z,1.00
2023-03-31T12:46:48.938Z,1.45
2023-03-31T12:49:49.565Z,1.20
2023-03-31T12:52:35.830Z,1.00
2023-03-31T12:55:32.372Z,1.70
2023-03-31T12:58:35.729Z,2.05
2023-03-31T13:01:23.945Z,1.60
2023-03-31T13:03:54.356Z,2.22
2023-03-31T13:06:29.009Z,2.60
2023-03-31T13:09:07.854Z,1.50
2023-03-31T13:11:36.501Z,1.50
2023-03-31T13:14:17.431Z,1.73
2023-03-31T13:16:43.540Z,2.65
2023-03-31T13:19:32.727Z,2.35
2023-03-31T13:22:01.011Z,3.47
2023-03-31T13:24:28.714Z,3.03
2023-03-31T13:27:01.736Z,2.78
2023-03-31T13:29:43.891Z,2.67
2023-03-31T13:32:26.042Z,1.67
2023-03-31T13:35:01.906Z,3.05
2023-03-31T13:37:44.414Z,3.00
2023-03-31T13:40:30.108Z,2.85
2023-03-31T13:43:40.956Z,2.42
2023-03-31T13:46:15.594Z,1.80
2023-03-31T13:49:00.104Z,2.55
2023-03-31T13:51:35.610Z,2.28
2023-03-31T13:57:05.466Z,3.22
2023-03-31T13:59:37.541Z,2.22
2023-03-31T14:02:22.005Z,2.83
2023-03-31T14:05:18.854Z,1.88
2023-03-31T14:07:49.330Z,2.83
2023-03-31T14:10:23.794Z,2.40
2023-03-31T14:12:51.973Z,1.73
2023-03-31T14:15:20.584Z,1.95
2023-03-31T14:17:46.925Z,2.80
2023-03-31T14:20:21.611Z,2.47
2023-03-31T14:23:10.185Z,2.50
2023-03-31T14:26:15.772Z,2.10
2023-03-31T14:29:00.285Z,2.30
2023-03-31T14:31:57.822Z,2.40
2023-03-31T14:34:53.173Z,2.08
2023-03-31T14:37:23.884Z,2.55
2023-03-31T14:39:55.809Z,1.92
2023-03-31T14:42:25.358Z,1.52
2023-03-31T14:45:01.427Z,2.10
2023-03-31T14:47:28.682Z,1.85
2023-03-31T14:50:15.760Z,2.25
2023-03-31T14:52:47.598Z,1.70
2023-03-31T14:55:17.534Z,1.90
2023-03-31T14:57:46.689Z,1.60
2023-03-31T15:00:19.529Z,2.00
2023-03-31T15:02:46.340Z,3.10
2023-03-31T15:05:24.817Z,2.00
2023-03-31T15:07:50.676Z,2.17
2023-03-31T15:10:20.707Z,1.60
2023-03-31T15:12:50.395Z,2.00
2023-03-31T15:15:19.043Z,1.65
2023-03-31T15:17:46.585Z,1.63
2023-03-31T15:20:31.404Z,1.08
2023-03-31T15:22:58.891Z,1.40
2023-03-31T15:25:33.640Z,1.88
2023-03-31T15:28:12.136Z,2.40
2023-03-31T15:30:38.574Z,1.75
2023-03-31T15:33:18.489Z,1.73
2023-03-31T15:35:46.181Z,1.50
2023-03-31T15:38:17.868Z,1.70
2023-03-31T15:40:45.032Z,2.35
2023-03-31T15:43:20.299Z,1.45
2023-03-31T15:45:53.060Z,2.30
2023-03-31T15:48:37.919Z,2.30
2023-03-31T15:51:26.885Z,1.90
2023-03-31T15:53:53.794Z,2.03
2023-03-31T15:56:43.082Z,1.70
2023-03-31T15:59:25.088Z,1.60
2023-03-31T16:01:53.117Z,1.35
2023-03-31T16:04:19.561Z,1.95
2023-03-31T16:06:57.863Z,2.58
2023-03-31T16:09:47.272Z,2.00
2023-03-31T16:12:38.717Z,2.33
2023-03-31T16:15:13.290Z,2.80
2023-03-31T16:17:46.848Z,1.83
2023-03-31T16:20:31.077Z,1.77
2023-03-31T16:22:58.863Z,2.35
2023-03-31T16:25:29.087Z,1.77
2023-03-31T16:27:58.412Z,1.73
2023-03-31T16:30:41.617Z,2.00
2023-03-31T16:33:10.591Z,2.38
2023-03-31T16:35:41.743Z,6.35
2023-03-31T16:38:09.689Z,2.22
2023-03-31T16:40:44.020Z,1.85
2023-03-31T16:43:09.742Z,2.17
2023-03-31T16:45:36.149Z,2.00
2023-03-31T16:48:15.105Z,2.00
2023-03-31T16:50:44.021Z,1.67
2023-03-31T16:53:12.539Z,2.28
2023-03-31T16:55:38.392Z,2.42
2023-03-31T16:58:04.263Z,2.30
2023-03-31T17:00:31.584Z,1.98
2023-03-31T17:02:58.426Z,2.00
2023-03-31T17:05:25.010Z,2.05
2023-03-31T17:07:51.469Z,2.25
2023-03-31T17:10:17.594Z,2.10
2023-03-31T17:12:43.462Z,2.20
2023-03-31T17:15:10.030Z,1.67
2023-03-31T17:17:36.148Z,1.75
2023-03-31T17:20:03.748Z,1.98
2023-03-31T17:22:29.907Z,1.90
2023-03-31T17:24:57.724Z,1.45
2023-03-31T17:27:25.235Z,1.45
2023-03-31T17:29:51.257Z,1.35
2023-03-31T17:32:18.459Z,1.02
2023-03-31T17:34:47.190Z,1.20
2023-03-31T17:37:16.159Z,1.30
2023-03-31T17:39:42.822Z,1.52
2023-03-31T17:42:10.116Z,1.17
2023-03-31T17:44:36.106Z,1.00
2023-03-31T17:47:02.065Z,1.55
2023-03-31T17:49:28.089Z,1.15
2023-03-31T17:51:54.077Z,0.98
2023-03-31T17:54:21.336Z,1.42
2023-03-31T17:56:50.369Z,0.85
2023-03-31T17:59:17.928Z,1.50
2023-03-31T18:01:44.693Z,1.38
2023-03-31T18:04:10.724Z,1.80
2023-03-31T18:06:36.629Z,1.30
2023-03-31T18:09:04.898Z,1.27
2023-03-31T18:11:31.196Z,1.40
2023-03-31T18:13:59.428Z,1.17
2023-03-31T18:16:25.530Z,1.20
2023-03-31T18:18:51.423Z,1.10
2023-03-31T18:21:17.202Z,0.90
2023-03-31T18:23:43.006Z,1.08
2023-03-31T18:26:11.034Z,1.27
2023-03-31T18:28:39.942Z,0.93
2023-03-31T18:31:07.936Z,1.30
2023-03-31T18:33:34.248Z,1.45
2023-03-31T18:36:01.165Z,1.10
2023-03-31T18:38:27.450Z,1.27
2023-03-31T18:40:53.975Z,1.50
2023-03-31T18:43:23.957Z,1.20
2023-03-31T18:45:55.702Z,1.10
2023-03-31T18:48:22.498Z,1.05
2023-03-31T18:50:50.988Z,1.20
2023-03-31T18:53:18.648Z,1.05
2023-03-31T18:55:52.455Z,2.05
2023-03-31T18:58:18.549Z,1.33
2023-03-31T19:00:44.757Z,1.48
2023-03-31T19:03:11.391Z,0.98
2023-03-31T19:05:38.026Z,1.23
2023-03-31T19:08:04.516Z,1.52
2023-03-31T19:10:30.827Z,2.25
2023-03-31T19:12:56.777Z,2.15
2023-03-31T19:15:22.759Z,1.85
2023-03-31T19:17:48.640Z,1.83
2023-03-31T19:20:17.326Z,2.47
2023-03-31T19:22:44.732Z,1.38
2023-03-31T19:25:11.977Z,1.88
2023-03-31T19:27:38.907Z,1.20
2023-03-31T19:30:06.161Z,1.10
2023-03-31T19:32:32.814Z,1.45
2023-03-31T19:34:58.666Z,0.93
2023-03-31T19:37:24.983Z,1.30
2023-03-31T19:39:51.635Z,1.30
2023-03-31T19:42:17.459Z,1.38
2023-03-31T19:44:44.688Z,1.15
2023-03-31T19:47:11.852Z,1.35
2023-03-31T19:49:37.830Z,1.25
2023-03-31T19:52:05.052Z,1.40
2023-03-31T19:54:31.252Z,1.67
2023-03-31T19:56:57.219Z,1.27
2023-03-31T19:59:23.092Z,1.25
2023-03-31T20:01:49.158Z,1.25
2023-03-31T20:04:18.308Z,1.20
2023-03-31T20:06:44.292Z,0.95
2023-03-31T20:09:10.195Z,1.00
2023-03-31T20:11:36.338Z,1.20
2023-03-31T20:14:03.248Z,1.00
2023-03-31T20:16:30.902Z,1.25
2023-03-31T20:19:06.163Z,1.40
2023-03-31T20:21:35.148Z,0.90
2023-03-31T20:24:02.166Z,1.15
2023-03-31T20:26:29.470Z,1.02
2023-03-31T20:28:57.275Z,1.58
2023-03-31T20:31:28.156Z,1.08
2023-03-31T20:33:55.094Z,1.73
2023-03-31T20:36:23.533Z,1.20
2023-03-31T20:38:51.533Z,1.23
2023-03-31T20:41:27.465Z,1.50
2023-03-31T20:43:54.524Z,1.58
2023-03-31T20:46:21.603Z,1.50
2023-03-31T20:48:50.618Z,1.70
2023-03-31T20:51:21.977Z,1.90
2023-03-31T20:53:52.106Z,1.25
2023-03-31T20:56:26.943Z,1.90
2023-03-31T20:58:54.182Z,1.95
2023-03-31T21:01:21.256Z,1.52
2023-03-31T21:03:48.216Z,1.33
2023-03-31T21:06:15.859Z,1.02
2023-03-31T21:08:44.783Z,1.35
2023-03-31T21:11:12.203Z,1.13
2023-03-31T21:13:38.367Z,1.10
2023-03-31T21:16:06.097Z,1.00
2023-03-31T21:18:34.093Z,1.00
2023-03-31T21:21:03.663Z,0.90
2023-03-31T21:23:30.299Z,1.02
2023-03-31T21:25:58.959Z,1.95
2023-03-31T21:28:27.393Z,0.98
2023-03-31T21:31:12.975Z,1.20
2023-03-31T21:33:41.250Z,1.10
2023-03-31T21:36:10.408Z,1.30
2023-03-31T21:38:36.520Z,1.02
2023-03-31T21:41:10.598Z,1.63
2023-03-31T21:43:36.676Z,1.63
2023-03-31T21:46:03.253Z,1.40
2023-03-31T21:48:29.917Z,1.13
2023-03-31T21:50:59.711Z,1.58
2023-03-31T21:53:27.953Z,1.15
2023-03-31T21:55:55.646Z,1.20
2023-03-31T21:58:27.712Z,1.45
2023-03-31T22:00:59.035Z,1.20
2023-03-31T22:03:28.226Z,1.75
2023-03-31T22:05:55.920Z,1.52
2023-03-31T22:08:22.178Z,1.42
2023-03-31T22:10:49.664Z,1.42
2023-03-31T22:13:15.712Z,1.50
2023-03-31T22:15:41.607Z,1.60
2023-03-31T22:18:07.564Z,1.15
2023-03-31T22:20:33.657Z,1.30
2023-03-31T22:22:59.488Z,1.55
2023-03-31T22:25:26.081Z,1.15
2023-03-31T22:27:51.958Z,1.30
2023-03-31T22:30:19.927Z,1.70
2023-03-31T22:32:45.862Z,1.45
2023-03-31T22:35:11.788Z,1.30
2023-03-31T22:37:37.668Z,1.10
2023-03-31T22:40:04.932Z,1.08
2023-03-31T22:42:31.998Z,1.55
2023-03-31T22:44:57.881Z,1.30
2023-03-31T22:47:23.743Z,1.17
2023-03-31T22:49:49.550Z,2.00
2023-03-31T22:52:15.462Z,1.73
2023-03-31T22:54:41.356Z,1.58
2023-03-31T22:57:07.910Z,1.30
2023-03-31T22:59:34.410Z,1.10
2023-03-31T23:02:00.584Z,2.08
2023-03-31T23:04:26.876Z,1.35
2023-03-31T23:06:52.864Z,1.10
2023-03-31T23:09:18.695Z,1.27
2023-03-31T23:11:44.730Z,1.42
2023-03-31T23:14:11.237Z,2.15
2023-03-31T23:16:37.644Z,1.08
2023-03-31T23:19:03.845Z,1.00
2023-03-31T23:21:30.103Z,0.88
2023-03-31T23:23:58.863Z,1.10
2023-03-31T23:26:27.421Z,1.20
2023-03-31T23:28:53.387Z,1.05
2023-03-31T23:31:22.412Z,1.45
2023-03-31T23:33:48.913Z,0.80
2023-03-31T23:36:20.244Z,1.23
2023-03-31T23:38:48.192Z,1.20
2023-03-31T23:41:15.308Z,1.10
2023-03-31T23:43:41.507Z,0.95
2023-03-31T23:46:08.584Z,0.95
2023-03-31T23:48:35.892Z,1.05
2023-03-31T23:51:02.174Z,0.93
2023-03-31T23:53:28.637Z,1.55
2023-03-31T23:55:59.343Z,0.80
2023-03-31T23:58:25.945Z,0.75
